createdAt,value
2022-12-04T01:30:09.863Z,89.66
2022-12-04T01:32:36.293Z,89.48
2022-12-04T01:35:02.770Z,89.19
2022-12-04T01:37:33.699Z,89.94
2022-12-04T01:40:00.291Z,89.37
2022-12-04T01:42:26.943Z,89.36
2022-12-04T01:45:31.784Z,89.82
2022-12-04T01:48:14.786Z,89.32
2022-12-04T01:50:43.417Z,89.41
2022-12-04T01:53:10.774Z,89.22
2022-12-04T01:55:37.627Z,89.04
2022-12-04T01:58:07.153Z,89.48
2022-12-04T02:00:33.664Z,89.19
2022-12-04T02:03:01.545Z,89.38
2022-12-04T02:05:28.076Z,89.45
2022-12-04T02:07:59.408Z,89.34
2022-12-04T02:10:41.325Z,88.99
2022-12-04T02:13:17.574Z,89.62
2022-12-04T02:16:18.897Z,89.51
2022-12-04T02:19:24.179Z,90.08
2022-12-04T02:21:55.237Z,90.02
2022-12-04T02:24:52.619Z,90.42
2022-12-04T02:27:41.150Z,89.53
2022-12-04T02:30:13.947Z,89.93
2022-12-04T02:32:47.013Z,90.09
2022-12-04T02:35:18.233Z,89.95
2022-12-04T02:37:49.455Z,89.82
2022-12-04T02:40:31.581Z,89.99
2022-12-04T02:43:27.386Z,90.41
2022-12-04T02:46:06.919Z,89.85
2022-12-04T02:48:37.294Z,89.60
2022-12-04T02:51:06.708Z,89.47
2022-12-04T02:53:37.198Z,89.92
2022-12-04T02:56:09.738Z,89.92
2022-12-04T02:58:44.186Z,89.80
2022-12-04T03:01:21.600Z,89.93
2022-12-04T03:04:02.984Z,89.37
2022-12-04T03:06:33.823Z,89.35
2022-12-04T03:09:28.415Z,89.51
2022-12-04T03:12:09.577Z,89.86
2022-12-04T03:14:42.041Z,89.70
2022-12-04T03:17:19.895Z,89.48
2022-12-04T03:19:54.541Z,89.03
2022-12-04T03:22:23.830Z,89.63
2022-12-04T03:24:52.959Z,89.65
2022-12-04T03:27:48.619Z,89.77
2022-12-04T03:30:17.128Z,89.97
2022-12-04T03:32:48.978Z,90.05
2022-12-04T03:35:37.144Z,89.53
2022-12-04T03:38:12.819Z,89.92
2022-12-04T03:40:47.993Z,89.86
2022-12-04T03:43:31.971Z,89.69
2022-12-04T03:46:01.392Z,89.41
2022-12-04T03:49:12.305Z,90.19
2022-12-04T03:51:47.571Z,89.97
2022-12-04T03:54:28.615Z,89.77
2022-12-04T03:57:00.360Z,89.55
2022-12-04T03:59:34.226Z,89.34
2022-12-04T04:02:03.211Z,89.46
2022-12-04T04:04:34.383Z,89.07
2022-12-04T04:07:13.175Z,88.93
2022-12-04T04:09:45.055Z,88.94
2022-12-04T04:12:20.181Z,88.85
2022-12-04T04:15:15.500Z,89.06
2022-12-04T04:18:07.786Z,89.24
2022-12-04T04:21:01.810Z,88.95
2022-12-04T04:23:52.766Z,89.26
2022-12-04T04:26:19.234Z,89.47
2022-12-04T04:28:46.099Z,89.30
2022-12-04T04:31:32.840Z,89.52
2022-12-04T04:34:11.367Z,89.69
2022-12-04T04:37:06.743Z,89.40
2022-12-04T04:39:38.590Z,89.40
2022-12-04T04:42:15.047Z,90.12
2022-12-04T04:44:51.768Z,89.56
2022-12-04T04:47:54.315Z,89.21
2022-12-04T04:50:22.126Z,89.88
2022-12-04T04:52:54.368Z,90.13
2022-12-04T04:55:22.487Z,89.70
2022-12-04T04:57:49.027Z,89.46
2022-12-04T05:00:19.855Z,89.81
2022-12-04T05:02:46.738Z,89.82
2022-12-04T05:05:13.576Z,89.96
2022-12-04T05:07:40.692Z,89.79
2022-12-04T05:10:08.690Z,90.01
2022-12-04T05:12:35.463Z,89.92
2022-12-04T05:15:01.928Z,89.64
2022-12-04T05:17:28.447Z,89.47
2022-12-04T05:19:55.602Z,89.49
2022-12-04T05:22:26.591Z,88.62
2022-12-04T05:24:53.752Z,89.28
2022-12-04T05:27:21.122Z,89.49
2022-12-04T05:29:47.985Z,89.03
2022-12-04T05:32:14.641Z,88.49
2022-12-04T05:34:41.104Z,88.62
2022-12-04T05:37:07.522Z,88.89
2022-12-04T05:39:34.800Z,88.92
2022-12-04T05:42:01.262Z,89.10
2022-12-04T05:44:27.694Z,89.27
2022-12-04T05:46:54.190Z,88.51
2022-12-04T05:49:20.666Z,89.83
2022-12-04T05:51:47.093Z,89.12
2022-12-04T05:54:13.508Z,88.95
2022-12-04T05:56:39.903Z,89.25
2022-12-04T05:59:06.332Z,89.96
2022-12-04T06:01:32.943Z,89.88
2022-12-04T06:03:59.519Z,89.59
2022-12-04T06:06:26.994Z,89.72
2022-12-04T06:08:56.401Z,89.64
2022-12-04T06:11:29.405Z,90.22
2022-12-04T06:13:56.758Z,90.01
2022-12-04T06:16:26.426Z,89.59
2022-12-04T06:18:55.596Z,89.86
2022-12-04T06:21:23.538Z,89.79
2022-12-04T06:23:51.135Z,90.44
2022-12-04T06:26:18.501Z,90.38
2022-12-04T06:28:45.043Z,90.28
2022-12-04T06:31:13.338Z,90.05
2022-12-04T06:33:40.597Z,89.64
2022-12-04T06:36:10.982Z,89.90
2022-12-04T06:38:39.098Z,90.42
2022-12-04T06:41:12.107Z,90.14
2022-12-04T06:43:39.407Z,90.09
2022-12-04T06:46:15.284Z,89.93
2022-12-04T06:48:42.872Z,90.92
2022-12-04T06:51:12.892Z,91.17
2022-12-04T06:53:39.718Z,91.06
2022-12-04T06:56:09.210Z,90.67
2022-12-04T06:58:35.958Z,90.70
2022-12-04T07:01:11.125Z,90.39
2022-12-04T07:03:38.526Z,91.06
2022-12-04T07:06:15.720Z,90.47
2022-12-04T07:08:44.774Z,91.02
2022-12-04T07:11:11.763Z,91.29
2022-12-04T07:13:38.391Z,91.64
2022-12-04T07:16:07.939Z,91.37
2022-12-04T07:18:35.426Z,91.44
2022-12-04T07:21:10.472Z,91.39
2022-12-04T07:23:37.357Z,91.39
2022-12-04T07:26:12.073Z,91.27
2022-12-04T07:28:39.677Z,91.49
2022-12-04T07:31:27.553Z,91.44
2022-12-04T07:33:55.012Z,91.17
2022-12-04T07:36:22.404Z,91.45
2022-12-04T07:38:52.234Z,91.35
2022-12-04T07:41:19.518Z,91.66
2022-12-04T07:43:48.921Z,91.52
2022-12-04T07:46:18.535Z,91.72
2022-12-04T07:48:45.470Z,92.01
2022-12-04T07:51:17.841Z,92.47
2022-12-04T07:53:44.782Z,92.16
2022-12-04T07:56:12.688Z,92.20
2022-12-04T07:58:42.997Z,91.54
2022-12-04T08:01:13.217Z,91.58
2022-12-04T08:03:47.114Z,91.22
2022-12-04T08:06:15.921Z,91.57
2022-12-04T08:08:42.354Z,91.29
2022-12-04T08:11:11.689Z,91.20
2022-12-04T08:13:38.410Z,91.32
2022-12-04T08:16:07.057Z,91.20
2022-12-04T08:18:35.865Z,90.79
2022-12-04T08:21:14.223Z,90.39
2022-12-04T08:26:16.658Z,90.28
2022-12-04T08:28:46.237Z,90.04
2022-12-04T08:31:41.797Z,90.31
2022-12-04T08:34:08.529Z,90.71
2022-12-04T08:36:38.737Z,90.16
2022-12-04T08:39:05.413Z,90.31
2022-12-04T08:41:35.005Z,90.47
2022-12-04T08:44:56.520Z,90.10
2022-12-04T08:47:23.501Z,90.43
2022-12-04T08:49:50.331Z,89.99
2022-12-04T08:52:16.849Z,90.16
2022-12-04T08:54:43.307Z,89.84
2022-12-04T08:57:09.731Z,90.09
2022-12-04T08:59:37.236Z,89.47
2022-12-04T09:02:04.045Z,89.67
2022-12-04T09:04:42.166Z,90.43
2022-12-04T09:07:08.570Z,90.50
2022-12-04T09:09:36.220Z,90.30
2022-12-04T09:12:07.112Z,89.73
2022-12-04T09:14:33.711Z,89.46
2022-12-04T09:17:00.137Z,89.47
2022-12-04T09:19:26.553Z,89.32
2022-12-04T09:21:53.068Z,90.01
2022-12-04T09:24:19.517Z,89.49
2022-12-04T09:26:47.308Z,89.65
2022-12-04T09:29:14.022Z,89.52
2022-12-04T09:31:43.856Z,89.60
2022-12-04T09:34:10.403Z,89.22
2022-12-04T09:36:37.437Z,88.97
2022-12-04T09:39:04.335Z,88.87
2022-12-04T09:41:51.902Z,89.74
2022-12-04T09:44:24.021Z,90.14
2022-12-04T09:47:00.042Z,89.96
2022-12-04T09:50:05.611Z,90.19
2022-12-04T09:56:36.763Z,89.52
2022-12-04T09:59:34.346Z,88.73
2022-12-04T10:02:26.918Z,89.14
2022-12-04T10:04:53.498Z,89.26
2022-12-04T10:07:29.852Z,89.33
2022-12-04T10:10:08.315Z,89.45
2022-12-04T10:13:21.432Z,88.87
2022-12-04T10:16:03.451Z,88.72
2022-12-04T10:18:42.770Z,89.14
2022-12-04T10:21:43.098Z,89.99
2022-12-04T10:24:21.761Z,90.12
2022-12-04T10:26:48.963Z,89.89
2022-12-04T10:29:24.292Z,89.69
2022-12-04T10:31:54.990Z,89.17
2022-12-04T10:34:25.771Z,89.24
2022-12-04T10:36:54.915Z,88.32
2022-12-04T10:39:25.823Z,89.27
2022-12-04T10:42:04.930Z,88.44
2022-12-04T10:44:31.415Z,88.94
2022-12-04T10:47:06.425Z,89.12
2022-12-04T10:49:36.141Z,88.55
2022-12-04T10:52:14.905Z,88.56
2022-12-04T10:57:55.907Z,88.51
2022-12-04T11:00:36.837Z,88.43
2022-12-04T11:03:43.991Z,88.84
2022-12-04T11:06:11.508Z,88.62
2022-12-04T11:08:51.055Z,89.22
2022-12-04T11:11:25.597Z,88.43
2022-12-04T11:14:16.047Z,88.50
2022-12-04T11:16:46.561Z,88.70
2022-12-04T11:19:27.961Z,87.82
2022-12-04T11:22:18.699Z,88.42
2022-12-04T11:24:55.490Z,88.29
2022-12-04T11:27:38.281Z,88.87
2022-12-04T11:30:30.392Z,88.53
2022-12-04T11:32:57.743Z,88.59
2022-12-04T11:35:26.963Z,89.08
2022-12-04T11:38:05.903Z,89.09
2022-12-04T11:40:32.585Z,89.60
2022-12-04T11:43:12.261Z,89.19
2022-12-04T11:45:39.212Z,89.09
2022-12-04T11:48:17.389Z,89.57
2022-12-04T11:51:09.161Z,89.19
2022-12-04T11:53:38.756Z,88.92
2022-12-04T11:56:20.184Z,88.93
2022-12-04T11:59:34.910Z,88.79
2022-12-04T12:02:21.068Z,88.34
2022-12-04T12:05:20.678Z,89.61
2022-12-04T12:08:29.877Z,89.34
2022-12-04T12:11:02.801Z,89.34
2022-12-04T12:13:41.148Z,89.61
2022-12-04T12:16:22.942Z,89.66
2022-12-04T12:19:01.665Z,89.64
2022-12-04T12:21:39.873Z,89.85
2022-12-04T12:24:53.610Z,89.52
2022-12-04T12:27:50.382Z,90.36
2022-12-04T12:30:24.277Z,89.96
2022-12-04T12:33:11.091Z,89.76
2022-12-04T12:36:05.806Z,90.18
2022-12-04T12:38:43.625Z,90.02
2022-12-04T12:41:24.169Z,89.74
2022-12-04T12:44:02.692Z,89.50
2022-12-04T12:46:36.104Z,89.79
2022-12-04T12:49:17.673Z,90.40
2022-12-04T12:51:54.991Z,89.92
2022-12-04T12:54:21.302Z,89.87
2022-12-04T12:56:53.608Z,90.58
2022-12-04T12:59:26.010Z,89.93
2022-12-04T13:02:06.479Z,90.27
2022-12-04T13:04:43.070Z,89.41
2022-12-04T13:07:18.595Z,89.88
2022-12-04T13:09:52.899Z,89.37
2022-12-04T13:12:22.546Z,89.69
2022-12-04T13:14:49.421Z,89.14
2022-12-04T13:17:23.980Z,88.91
2022-12-04T13:19:55.096Z,89.26
2022-12-04T13:22:26.877Z,88.92
2022-12-04T13:25:44.729Z,89.95
2022-12-04T13:28:28.238Z,89.90
2022-12-04T13:31:29.512Z,89.99
2022-12-04T13:34:30.358Z,90.07
2022-12-04T13:37:21.060Z,90.28
2022-12-04T13:40:27.805Z,90.67
2022-12-04T13:43:24.994Z,90.23
2022-12-04T13:45:54.385Z,90.24
2022-12-04T13:48:33.710Z,90.59
2022-12-04T13:51:06.298Z,90.65
2022-12-04T13:53:37.527Z,90.82
2022-12-04T13:56:08.804Z,90.99
2022-12-04T13:58:36.221Z,90.93
2022-12-04T14:01:13.141Z,91.32
2022-12-04T14:03:48.440Z,91.29
2022-12-04T14:06:24.969Z,91.59
2022-12-04T14:09:03.043Z,91.57
2022-12-04T14:11:41.847Z,90.94
2022-12-04T14:14:23.945Z,91.41
2022-12-04T14:16:51.389Z,91.07
2022-12-04T14:19:45.565Z,91.14
2022-12-04T14:22:34.786Z,91.92
2022-12-04T14:25:24.918Z,91.87
2022-12-04T14:27:53.885Z,91.80
2022-12-04T14:31:07.020Z,92.42
2022-12-04T14:33:39.688Z,92.56
2022-12-04T14:36:11.182Z,92.29
2022-12-04T14:38:38.646Z,92.77
2022-12-04T14:41:06.629Z,92.99
2022-12-04T14:43:44.337Z,93.72
2022-12-04T14:46:18.000Z,93.47
2022-12-04T14:49:13.279Z,93.28
2022-12-04T14:51:58.513Z,93.36
2022-12-04T14:54:56.862Z,92.60
2022-12-04T14:57:44.942Z,92.77
2022-12-04T15:00:22.556Z,93.07
2022-12-04T15:02:52.782Z,92.84
2022-12-04T15:05:31.643Z,92.82
2022-12-04T15:08:04.773Z,93.25
2022-12-04T15:10:55.226Z,93.85
2022-12-04T15:13:34.357Z,93.20
2022-12-04T15:16:11.303Z,93.37
2022-12-04T15:18:39.720Z,93.29
2022-12-04T15:21:10.909Z,93.06
2022-12-04T15:23:41.674Z,93.47
2022-12-04T15:26:15.467Z,93.38
2022-12-04T15:28:54.721Z,93.20
2022-12-04T15:31:30.737Z,93.70
2022-12-04T15:34:04.165Z,93.68
2022-12-04T15:39:47.450Z,93.62
2022-12-04T15:42:23.535Z,93.32
2022-12-04T15:44:52.520Z,93.57
2022-12-04T15:47:25.238Z,93.59
2022-12-04T15:49:51.927Z,93.98
2022-12-04T15:52:20.933Z,94.42
2022-12-04T15:54:56.708Z,93.97
2022-12-04T15:57:33.468Z,94.27
2022-12-04T16:00:07.882Z,94.52
2022-12-04T16:02:42.894Z,94.34
2022-12-04T16:05:12.631Z,94.16
2022-12-04T16:07:49.367Z,94.05
2022-12-04T16:10:23.751Z,93.94
2022-12-04T16:12:56.182Z,94.52
2022-12-04T16:15:24.501Z,94.05
2022-12-04T16:17:51.917Z,94.54
2022-12-04T16:20:19.105Z,94.74
2022-12-04T16:22:48.489Z,94.74
2022-12-04T16:25:15.243Z,94.57
2022-12-04T16:27:41.730Z,94.53
2022-12-04T16:30:09.373Z,94.51
2022-12-04T16:32:35.926Z,93.99
2022-12-04T16:35:02.410Z,93.90
2022-12-04T16:37:31.618Z,94.06
2022-12-04T16:39:58.385Z,94.04
2022-12-04T16:42:27.893Z,95.00
2022-12-04T16:44:55.229Z,94.92
2022-12-04T16:47:21.888Z,94.73
2022-12-04T16:49:51.022Z,94.65
2022-12-04T16:52:18.792Z,94.82
2022-12-04T16:54:45.615Z,94.48
2022-12-04T16:57:12.042Z,94.51
2022-12-04T16:59:38.623Z,94.70
2022-12-04T17:02:15.512Z,95.04
2022-12-04T17:04:42.298Z,94.57
2022-12-04T17:07:08.873Z,94.69
2022-12-04T17:09:35.401Z,94.64
2022-12-04T17:12:01.853Z,95.49
2022-12-04T17:14:28.352Z,95.37
2022-12-04T17:16:56.399Z,95.21
2022-12-04T17:19:22.955Z,94.85
2022-12-04T17:21:49.509Z,94.64
2022-12-04T17:24:16.133Z,94.32
2022-12-04T17:26:42.554Z,94.54
2022-12-04T17:29:09.161Z,94.39
2022-12-04T17:31:35.689Z,94.95
2022-12-04T17:34:02.232Z,94.69
2022-12-04T17:36:28.914Z,94.43
2022-12-04T17:38:57.774Z,94.34
2022-12-04T17:41:25.055Z,94.30
2022-12-04T17:43:51.564Z,94.31
2022-12-04T17:46:21.518Z,94.79
2022-12-04T17:48:49.095Z,94.41
2022-12-04T18:31:51.130Z,94.54
2022-12-04T18:34:18.660Z,94.47
2022-12-04T18:36:45.619Z,94.45
2022-12-04T18:39:19.063Z,94.58
2022-12-04T18:41:46.217Z,94.89
2022-12-04T18:44:13.353Z,94.69
2022-12-04T18:46:40.229Z,94.29
2022-12-04T18:49:09.106Z,94.07
2022-12-04T18:51:37.576Z,94.09
2022-12-04T18:54:17.489Z,93.88
2022-12-04T18:56:44.821Z,93.82
2022-12-04T18:59:20.201Z,94.07
2022-12-04T19:01:46.712Z,93.98
2022-12-04T19:04:14.556Z,93.94
2022-12-04T19:06:43.821Z,93.84
2022-12-04T19:09:16.757Z,94.20
2022-12-04T19:11:44.380Z,93.74
2022-12-04T19:14:22.250Z,94.29
2022-12-04T19:16:49.880Z,94.11
2022-12-04T19:19:18.876Z,94.12
2022-12-04T19:21:45.323Z,94.09
2022-12-04T19:24:12.339Z,94.12
2022-12-04T19:26:39.020Z,94.69
2022-12-04T19:29:06.997Z,94.59
2022-12-04T19:31:35.755Z,94.35
2022-12-04T19:34:02.824Z,94.74
2022-12-04T19:36:30.908Z,94.49
2022-12-04T19:38:58.702Z,94.83
2022-12-04T19:41:28.117Z,94.80
2022-12-04T19:43:56.694Z,94.68
2022-12-04T19:46:27.927Z,95.29
2022-12-04T19:48:58.230Z,94.94
2022-12-04T19:51:25.354Z,95.14
2022-12-04T19:53:53.919Z,94.67
2022-12-04T19:56:25.634Z,94.90
2022-12-04T19:58:54.061Z,94.44
2022-12-04T20:01:24.829Z,94.85
2022-12-04T20:03:51.256Z,94.38
2022-12-04T20:06:20.368Z,94.67
2022-12-04T20:08:47.588Z,94.39
2022-12-04T20:11:18.758Z,94.54
2022-12-04T20:13:46.757Z,94.20
2022-12-04T20:16:16.386Z,93.92
2022-12-04T20:18:43.857Z,94.23
2022-12-04T20:21:12.098Z,94.30
2022-12-04T20:23:40.101Z,93.72
2022-12-04T20:26:08.556Z,94.01
2022-12-04T20:28:35.232Z,94.29
2022-12-04T20:31:21.162Z,93.84
2022-12-04T20:33:49.249Z,93.97
2022-12-04T20:36:18.598Z,94.04
2022-12-04T20:38:45.680Z,93.89
2022-12-04T20:41:15.853Z,93.69
2022-12-04T20:43:43.198Z,94.18
2022-12-04T20:46:20.722Z,94.09
2022-12-04T20:48:48.907Z,94.04
2022-12-04T20:51:18.407Z,93.87
2022-12-04T20:53:46.183Z,94.04
2022-12-04T20:56:13.136Z,93.69
2022-12-04T20:58:40.519Z,93.67
2022-12-04T21:01:18.040Z,93.87
2022-12-04T21:03:45.017Z,93.77
2022-12-04T21:06:17.288Z,93.62
2022-12-04T21:08:53.110Z,93.79
2022-12-04T21:11:29.343Z,93.62
2022-12-04T21:14:15.493Z,93.83
2022-12-04T21:16:42.864Z,93.99
2022-12-04T21:19:11.445Z,93.77
2022-12-04T21:21:38.085Z,93.84
2022-12-04T21:24:06.520Z,93.70
2022-12-04T21:26:33.891Z,93.64
2022-12-04T21:29:01.199Z,93.82
2022-12-04T21:31:29.074Z,93.82
2022-12-04T21:33:56.935Z,94.07
2022-12-04T21:36:23.899Z,94.63
2022-12-04T21:38:50.354Z,93.84
2022-12-04T21:41:36.182Z,93.47
2022-12-04T21:44:12.050Z,94.07
2022-12-04T21:46:38.620Z,94.29
2022-12-04T21:49:05.803Z,94.37
2022-12-04T21:51:56.246Z,94.47
2022-12-04T21:54:18.686Z,94.24
2022-12-04T21:56:45.094Z,94.27
2022-12-04T21:59:12.302Z,94.29
2022-12-04T22:01:38.783Z,94.54
2022-12-04T22:04:05.310Z,94.47
2022-12-04T22:06:36.057Z,94.44
2022-12-04T22:09:07.357Z,94.53
2022-12-04T22:11:33.848Z,95.13
2022-12-04T22:14:00.576Z,95.20
2022-12-04T22:16:30.591Z,94.94
2022-12-04T22:18:58.545Z,95.21
2022-12-04T22:21:26.336Z,94.81
2022-12-04T22:23:57.598Z,94.96
2022-12-04T22:26:24.673Z,94.84
2022-12-04T22:28:51.308Z,94.89
2022-12-04T22:31:20.506Z,95.26
2022-12-04T22:33:48.773Z,95.31
2022-12-04T22:36:18.889Z,95.15
2022-12-04T22:39:08.246Z,95.14
2022-12-04T22:41:32.158Z,95.24
2022-12-04T22:43:58.567Z,95.29
2022-12-04T22:46:24.991Z,95.31
2022-12-04T22:48:51.671Z,95.02
2022-12-04T22:51:20.525Z,95.40
2022-12-04T22:53:52.160Z,95.29
2022-12-04T22:56:27.178Z,95.46
2022-12-04T22:58:54.606Z,95.33
2022-12-04T23:01:22.315Z,95.57
2022-12-04T23:03:49.203Z,95.45
2022-12-04T23:06:18.002Z,95.11
2022-12-04T23:08:45.655Z,95.44
2022-12-04T23:11:19.509Z,95.39
2022-12-04T23:13:53.903Z,95.67
2022-12-04T23:16:22.236Z,95.66
2022-12-04T23:18:49.180Z,95.84
2022-12-04T23:21:16.481Z,95.69
2022-12-04T23:23:44.599Z,95.89
2022-12-04T23:26:14.401Z,95.22
2022-12-04T23:28:40.912Z,95.22
2022-12-04T23:31:07.578Z,95.61
2022-12-04T23:33:34.199Z,95.43
2022-12-04T23:36:01.918Z,95.67
2022-12-04T23:38:29.665Z,95.82
2022-12-04T23:41:08.465Z,95.55
2022-12-04T23:43:35.173Z,95.67
2022-12-04T23:46:07.267Z,95.45
2022-12-04T23:48:37.274Z,95.71
2022-12-04T23:51:03.765Z,95.39
2022-12-04T23:53:30.217Z,95.71
2022-12-04T23:55:57.446Z,95.17
2022-12-04T23:58:24.294Z,95.52
